sensor_id;sensor_type;location;lat;lon;timestamp;P1;durP1;ratioP1;P2;durP2;ratioP2
72413;SDS011;60995;52.154;4.498;2023-04-21T00:00:43;27.30;;;18.35;;
72413;SDS011;60995;52.154;4.498;2023-04-21T00:02:59;34.05;;;21.80;;
72413;SDS011;60995;52.154;4.498;2023-04-21T00:05:16;28.05;;;19.73;;
72413;SDS011;60995;52.154;4.498;2023-04-21T00:07:32;31.67;;;20.05;;
72413;SDS011;60995;52.154;4.498;2023-04-21T00:09:48;31.02;;;20.90;;
72413;SDS011;60995;52.154;4.498;2023-04-21T00:12:05;31.33;;;19.83;;
72413;SDS011;60995;52.154;4.498;2023-04-21T00:14:21;32.58;;;20.80;;
72413;SDS011;60995;52.154;4.498;2023-04-21T00:16:37;29.15;;;20.25;;
72413;SDS011;60995;52.154;4.498;2023-04-21T00:18:53;34.72;;;19.92;;
72413;SDS011;60995;52.154;4.498;2023-04-21T00:21:10;34.92;;;21.45;;
72413;SDS011;60995;52.154;4.498;2023-04-21T00:23:26;32.72;;;21.85;;
72413;SDS011;60995;52.154;4.498;2023-04-21T00:25:42;34.60;;;21.67;;
72413;SDS011;60995;52.154;4.498;2023-04-21T00:27:58;32.58;;;20.85;;
72413;SDS011;60995;52.154;4.498;2023-04-21T00:30:15;36.17;;;22.52;;
72413;SDS011;60995;52.154;4.498;2023-04-21T00:32:32;33.60;;;20.95;;
72413;SDS011;60995;52.154;4.498;2023-04-21T00:34:48;36.85;;;22.35;;
72413;SDS011;60995;52.154;4.498;2023-04-21T00:37:04;37.38;;;22.83;;
72413;SDS011;60995;52.154;4.498;2023-04-21T00:39:20;37.13;;;23.70;;
72413;SDS011;60995;52.154;4.498;2023-04-21T00:41:37;38.45;;;24.08;;
72413;SDS011;60995;52.154;4.498;2023-04-21T00:46:19;37.35;;;23.33;;
72413;SDS011;60995;52.154;4.498;2023-04-21T00:48:35;41.28;;;25.15;;
72413;SDS011;60995;52.154;4.498;2023-04-21T00:50:52;42.83;;;25.05;;
72413;SDS011;60995;52.154;4.498;2023-04-21T00:53:08;40.72;;;24.73;;
72413;SDS011;60995;52.154;4.498;2023-04-21T00:55:27;40.58;;;24.98;;
72413;SDS011;60995;52.154;4.498;2023-04-21T00:57:43;39.40;;;25.65;;
72413;SDS011;60995;52.154;4.498;2023-04-21T01:00:00;40.55;;;24.92;;
72413;SDS011;60995;52.154;4.498;2023-04-21T01:02:18;41.63;;;26.30;;
72413;SDS011;60995;52.154;4.498;2023-04-21T01:04:35;45.58;;;26.48;;
72413;SDS011;60995;52.154;4.498;2023-04-21T01:06:54;45.20;;;27.50;;
72413;SDS011;60995;52.154;4.498;2023-04-21T01:09:10;45.38;;;26.95;;
72413;SDS011;60995;52.154;4.498;2023-04-21T01:11:29;41.92;;;25.52;;
72413;SDS011;60995;52.154;4.498;2023-04-21T01:13:46;49.58;;;28.92;;
72413;SDS011;60995;52.154;4.498;2023-04-21T01:16:03;44.47;;;26.13;;
72413;SDS011;60995;52.154;4.498;2023-04-21T01:18:20;44.70;;;27.67;;
72413;SDS011;60995;52.154;4.498;2023-04-21T01:20:36;50.28;;;28.95;;
72413;SDS011;60995;52.154;4.498;2023-04-21T01:22:53;48.35;;;28.73;;
72413;SDS011;60995;52.154;4.498;2023-04-21T01:25:10;50.95;;;29.20;;
72413;SDS011;60995;52.154;4.498;2023-04-21T01:27:26;46.78;;;25.98;;
72413;SDS011;60995;52.154;4.498;2023-04-21T01:29:43;55.33;;;30.50;;
72413;SDS011;60995;52.154;4.498;2023-04-21T01:32:09;47.83;;;29.38;;
72413;SDS011;60995;52.154;4.498;2023-04-21T01:34:29;53.28;;;30.17;;
72413;SDS011;60995;52.154;4.498;2023-04-21T01:36:46;51.60;;;29.98;;
72413;SDS011;60995;52.154;4.498;2023-04-21T01:39:02;58.30;;;31.58;;
72413;SDS011;60995;52.154;4.498;2023-04-21T01:41:19;50.30;;;30.30;;
72413;SDS011;60995;52.154;4.498;2023-04-21T01:43:35;47.78;;;28.58;;
72413;SDS011;60995;52.154;4.498;2023-04-21T01:45:52;52.95;;;31.17;;
72413;SDS011;60995;52.154;4.498;2023-04-21T01:48:08;53.78;;;29.52;;
72413;SDS011;60995;52.154;4.498;2023-04-21T01:50:25;51.42;;;30.30;;
72413;SDS011;60995;52.154;4.498;2023-04-21T01:52:41;49.15;;;27.65;;
72413;SDS011;60995;52.154;4.498;2023-04-21T01:54:57;55.33;;;30.77;;
72413;SDS011;60995;52.154;4.498;2023-04-21T01:57:16;55.28;;;31.92;;
72413;SDS011;60995;52.154;4.498;2023-04-21T01:59:33;53.72;;;30.67;;
72413;SDS011;60995;52.154;4.498;2023-04-21T02:01:49;53.92;;;30.83;;
72413;SDS011;60995;52.154;4.498;2023-04-21T02:04:05;52.63;;;27.55;;
72413;SDS011;60995;52.154;4.498;2023-04-21T02:06:22;52.00;;;29.65;;
72413;SDS011;60995;52.154;4.498;2023-04-21T02:08:38;56.85;;;33.05;;
72413;SDS011;60995;52.154;4.498;2023-04-21T02:10:54;57.70;;;32.42;;
72413;SDS011;60995;52.154;4.498;2023-04-21T02:13:10;52.72;;;30.98;;
72413;SDS011;60995;52.154;4.498;2023-04-21T02:15:27;52.65;;;30.58;;
72413;SDS011;60995;52.154;4.498;2023-04-21T02:17:43;62.20;;;31.83;;
72413;SDS011;60995;52.154;4.498;2023-04-21T02:19:59;60.67;;;32.00;;
72413;SDS011;60995;52.154;4.498;2023-04-21T02:22:15;55.65;;;31.38;;
72413;SDS011;60995;52.154;4.498;2023-04-21T02:24:32;59.65;;;32.08;;
72413;SDS011;60995;52.154;4.498;2023-04-21T02:26:49;57.08;;;31.70;;
72413;SDS011;60995;52.154;4.498;2023-04-21T02:29:06;54.95;;;31.73;;
72413;SDS011;60995;52.154;4.498;2023-04-21T02:31:22;50.75;;;29.02;;
72413;SDS011;60995;52.154;4.498;2023-04-21T02:33:38;64.68;;;33.00;;
72413;SDS011;60995;52.154;4.498;2023-04-21T02:35:55;56.35;;;33.20;;
72413;SDS011;60995;52.154;4.498;2023-04-21T02:38:12;61.75;;;34.53;;
72413;SDS011;60995;52.154;4.498;2023-04-21T02:40:28;62.20;;;33.08;;
72413;SDS011;60995;52.154;4.498;2023-04-21T02:42:44;62.22;;;34.15;;
72413;SDS011;60995;52.154;4.498;2023-04-21T02:45:01;59.47;;;33.47;;
72413;SDS011;60995;52.154;4.498;2023-04-21T02:47:17;65.90;;;35.60;;
72413;SDS011;60995;52.154;4.498;2023-04-21T02:49:34;64.25;;;35.83;;
72413;SDS011;60995;52.154;4.498;2023-04-21T02:51:57;64.78;;;35.72;;
72413;SDS011;60995;52.154;4.498;2023-04-21T02:54:14;69.75;;;36.05;;
72413;SDS011;60995;52.154;4.498;2023-04-21T02:56:30;68.63;;;33.05;;
72413;SDS011;60995;52.154;4.498;2023-04-21T02:58:49;65.32;;;34.38;;
72413;SDS011;60995;52.154;4.498;2023-04-21T03:01:05;66.05;;;34.63;;
72413;SDS011;60995;52.154;4.498;2023-04-21T03:03:22;74.55;;;37.70;;
72413;SDS011;60995;52.154;4.498;2023-04-21T03:05:38;64.43;;;34.40;;
72413;SDS011;60995;52.154;4.498;2023-04-21T03:07:54;65.75;;;35.75;;
72413;SDS011;60995;52.154;4.498;2023-04-21T03:10:11;73.25;;;37.08;;
72413;SDS011;60995;52.154;4.498;2023-04-21T03:12:27;69.07;;;37.25;;
72413;SDS011;60995;52.154;4.498;2023-04-21T03:14:43;68.07;;;36.42;;
72413;SDS011;60995;52.154;4.498;2023-04-21T03:17:00;74.10;;;38.22;;
72413;SDS011;60995;52.154;4.498;2023-04-21T03:19:17;79.55;;;40.72;;
72413;SDS011;60995;52.154;4.498;2023-04-21T03:21:35;73.40;;;37.58;;
72413;SDS011;60995;52.154;4.498;2023-04-21T03:23:53;74.40;;;37.15;;
72413;SDS011;60995;52.154;4.498;2023-04-21T03:26:09;74.03;;;37.90;;
72413;SDS011;60995;52.154;4.498;2023-04-21T03:28:29;69.95;;;37.08;;
72413;SDS011;60995;52.154;4.498;2023-04-21T03:30:46;80.90;;;38.38;;
72413;SDS011;60995;52.154;4.498;2023-04-21T03:33:03;71.32;;;34.25;;
72413;SDS011;60995;52.154;4.498;2023-04-21T03:35:19;67.43;;;33.85;;
72413;SDS011;60995;52.154;4.498;2023-04-21T03:37:36;85.55;;;40.95;;
72413;SDS011;60995;52.154;4.498;2023-04-21T03:39:53;78.47;;;39.63;;
72413;SDS011;60995;52.154;4.498;2023-04-21T03:42:10;72.20;;;37.45;;
72413;SDS011;60995;52.154;4.498;2023-04-21T03:44:26;83.97;;;40.78;;
72413;SDS011;60995;52.154;4.498;2023-04-21T03:46:43;75.78;;;33.67;;
72413;SDS011;60995;52.154;4.498;2023-04-21T03:49:00;79.75;;;39.72;;
72413;SDS011;60995;52.154;4.498;2023-04-21T03:51:16;76.90;;;39.65;;
72413;SDS011;60995;52.154;4.498;2023-04-21T03:53:33;76.97;;;37.75;;
72413;SDS011;60995;52.154;4.498;2023-04-21T03:55:49;79.88;;;38.38;;
72413;SDS011;60995;52.154;4.498;2023-04-21T03:58:06;78.35;;;38.55;;
72413;SDS011;60995;52.154;4.498;2023-04-21T04:00:22;81.80;;;38.45;;
72413;SDS011;60995;52.154;4.498;2023-04-21T04:02:39;84.18;;;39.22;;
72413;SDS011;60995;52.154;4.498;2023-04-21T04:04:55;75.75;;;39.70;;
72413;SDS011;60995;52.154;4.498;2023-04-21T04:07:11;79.10;;;38.72;;
72413;SDS011;60995;52.154;4.498;2023-04-21T04:09:28;79.28;;;38.85;;
72413;SDS011;60995;52.154;4.498;2023-04-21T04:11:44;87.45;;;42.45;;
72413;SDS011;60995;52.154;4.498;2023-04-21T04:14:04;87.50;;;41.72;;
72413;SDS011;60995;52.154;4.498;2023-04-21T04:16:20;86.85;;;41.33;;
72413;SDS011;60995;52.154;4.498;2023-04-21T04:18:36;88.28;;;42.03;;
72413;SDS011;60995;52.154;4.498;2023-04-21T04:20:52;83.82;;;41.75;;
72413;SDS011;60995;52.154;4.498;2023-04-21T04:23:09;84.10;;;40.55;;
72413;SDS011;60995;52.154;4.498;2023-04-21T04:25:25;80.85;;;40.55;;
72413;SDS011;60995;52.154;4.498;2023-04-21T04:27:42;78.10;;;39.33;;
72413;SDS011;60995;52.154;4.498;2023-04-21T04:29:59;79.88;;;39.92;;
72413;SDS011;60995;52.154;4.498;2023-04-21T04:32:16;77.60;;;39.75;;
72413;SDS011;60995;52.154;4.498;2023-04-21T04:34:36;85.80;;;42.30;;
72413;SDS011;60995;52.154;4.498;2023-04-21T04:36:53;78.43;;;39.70;;
72413;SDS011;60995;52.154;4.498;2023-04-21T04:39:12;81.10;;;41.58;;
72413;SDS011;60995;52.154;4.498;2023-04-21T04:41:28;79.15;;;40.28;;
72413;SDS011;60995;52.154;4.498;2023-04-21T04:43:45;80.53;;;41.13;;
72413;SDS011;60995;52.154;4.498;2023-04-21T04:46:02;75.63;;;36.05;;
72413;SDS011;60995;52.154;4.498;2023-04-21T04:48:18;77.97;;;39.92;;
72413;SDS011;60995;52.154;4.498;2023-04-21T04:50:35;82.68;;;40.65;;
72413;SDS011;60995;52.154;4.498;2023-04-21T04:52:51;81.57;;;38.85;;
72413;SDS011;60995;52.154;4.498;2023-04-21T04:55:07;77.00;;;38.60;;
72413;SDS011;60995;52.154;4.498;2023-04-21T04:57:24;79.88;;;40.08;;
72413;SDS011;60995;52.154;4.498;2023-04-21T04:59:40;79.00;;;40.67;;
72413;SDS011;60995;52.154;4.498;2023-04-21T05:01:57;85.80;;;41.90;;
72413;SDS011;60995;52.154;4.498;2023-04-21T05:04:13;81.82;;;41.15;;
72413;SDS011;60995;52.154;4.498;2023-04-21T05:06:31;82.80;;;40.75;;
72413;SDS011;60995;52.154;4.498;2023-04-21T05:08:48;82.25;;;40.40;;
72413;SDS011;60995;52.154;4.498;2023-04-21T05:11:04;79.45;;;40.35;;
72413;SDS011;60995;52.154;4.498;2023-04-21T05:13:21;81.82;;;39.80;;
72413;SDS011;60995;52.154;4.498;2023-04-21T05:15:37;75.15;;;38.63;;
72413;SDS011;60995;52.154;4.498;2023-04-21T05:17:54;81.72;;;40.15;;
72413;SDS011;60995;52.154;4.498;2023-04-21T05:20:10;77.35;;;40.28;;
72413;SDS011;60995;52.154;4.498;2023-04-21T05:22:27;78.22;;;40.63;;
72413;SDS011;60995;52.154;4.498;2023-04-21T05:24:43;75.13;;;38.22;;
72413;SDS011;60995;52.154;4.498;2023-04-21T05:27:00;77.82;;;39.65;;
72413;SDS011;60995;52.154;4.498;2023-04-21T05:29:17;71.22;;;37.15;;
72413;SDS011;60995;52.154;4.498;2023-04-21T05:31:33;66.32;;;35.95;;
72413;SDS011;60995;52.154;4.498;2023-04-21T05:33:50;69.50;;;37.20;;
72413;SDS011;60995;52.154;4.498;2023-04-21T05:36:07;71.88;;;37.85;;
72413;SDS011;60995;52.154;4.498;2023-04-21T05:38:25;66.13;;;35.45;;
72413;SDS011;60995;52.154;4.498;2023-04-21T05:40:42;68.30;;;36.42;;
72413;SDS011;60995;52.154;4.498;2023-04-21T05:42:58;73.88;;;39.80;;
72413;SDS011;60995;52.154;4.498;2023-04-21T05:45:14;64.22;;;37.17;;
72413;SDS011;60995;52.154;4.498;2023-04-21T05:47:31;70.53;;;38.95;;
72413;SDS011;60995;52.154;4.498;2023-04-21T05:49:50;68.75;;;38.38;;
72413;SDS011;60995;52.154;4.498;2023-04-21T05:52:08;68.03;;;36.53;;
72413;SDS011;60995;52.154;4.498;2023-04-21T05:54:25;70.78;;;37.67;;
72413;SDS011;60995;52.154;4.498;2023-04-21T05:56:41;65.78;;;35.63;;
72413;SDS011;60995;52.154;4.498;2023-04-21T05:58:57;69.78;;;38.78;;
72413;SDS011;60995;52.154;4.498;2023-04-21T06:01:14;67.63;;;37.88;;
72413;SDS011;60995;52.154;4.498;2023-04-21T06:03:30;66.18;;;37.33;;
72413;SDS011;60995;52.154;4.498;2023-04-21T06:05:52;54.10;;;28.80;;
72413;SDS011;60995;52.154;4.498;2023-04-21T06:08:10;61.72;;;33.90;;
72413;SDS011;60995;52.154;4.498;2023-04-21T06:10:26;66.18;;;37.13;;
72413;SDS011;60995;52.154;4.498;2023-04-21T06:12:42;59.15;;;34.85;;
72413;SDS011;60995;52.154;4.498;2023-04-21T06:14:59;57.35;;;35.33;;
72413;SDS011;60995;52.154;4.498;2023-04-21T06:17:15;56.35;;;34.33;;
72413;SDS011;60995;52.154;4.498;2023-04-21T06:19:35;57.58;;;33.28;;
72413;SDS011;60995;52.154;4.498;2023-04-21T06:21:55;55.28;;;32.63;;
72413;SDS011;60995;52.154;4.498;2023-04-21T06:24:12;46.97;;;28.80;;
72413;SDS011;60995;52.154;4.498;2023-04-21T06:26:28;48.85;;;31.25;;
72413;SDS011;60995;52.154;4.498;2023-04-21T06:28:45;55.53;;;33.35;;
72413;SDS011;60995;52.154;4.498;2023-04-21T06:31:02;54.78;;;33.28;;
72413;SDS011;60995;52.154;4.498;2023-04-21T06:33:19;50.53;;;31.58;;
72413;SDS011;60995;52.154;4.498;2023-04-21T06:35:35;54.95;;;32.90;;
72413;SDS011;60995;52.154;4.498;2023-04-21T06:37:51;47.40;;;29.08;;
72413;SDS011;60995;52.154;4.498;2023-04-21T06:40:08;54.88;;;34.33;;
72413;SDS011;60995;52.154;4.498;2023-04-21T06:42:27;67.30;;;36.10;;
72413;SDS011;60995;52.154;4.498;2023-04-21T06:44:43;67.05;;;34.75;;
72413;SDS011;60995;52.154;4.498;2023-04-21T06:46:59;54.20;;;33.95;;
72413;SDS011;60995;52.154;4.498;2023-04-21T06:49:15;52.53;;;34.00;;
72413;SDS011;60995;52.154;4.498;2023-04-21T06:51:32;53.30;;;32.20;;
72413;SDS011;60995;52.154;4.498;2023-04-21T06:53:54;57.08;;;34.50;;
72413;SDS011;60995;52.154;4.498;2023-04-21T06:56:10;56.67;;;33.58;;
72413;SDS011;60995;52.154;4.498;2023-04-21T06:58:27;52.30;;;33.85;;
72413;SDS011;60995;52.154;4.498;2023-04-21T07:00:43;49.88;;;30.10;;
72413;SDS011;60995;52.154;4.498;2023-04-21T07:02:59;55.35;;;34.20;;
72413;SDS011;60995;52.154;4.498;2023-04-21T07:05:16;54.60;;;35.22;;
72413;SDS011;60995;52.154;4.498;2023-04-21T07:07:34;50.08;;;30.67;;
72413;SDS011;60995;52.154;4.498;2023-04-21T07:09:51;44.92;;;27.95;;
72413;SDS011;60995;52.154;4.498;2023-04-21T07:12:07;45.13;;;30.98;;
72413;SDS011;60995;52.154;4.498;2023-04-21T07:14:23;45.63;;;30.67;;
72413;SDS011;60995;52.154;4.498;2023-04-21T07:16:40;48.85;;;31.23;;
72413;SDS011;60995;52.154;4.498;2023-04-21T07:18:56;42.90;;;29.73;;
72413;SDS011;60995;52.154;4.498;2023-04-21T07:21:13;39.55;;;27.92;;
72413;SDS011;60995;52.154;4.498;2023-04-21T07:23:30;40.47;;;25.33;;
72413;SDS011;60995;52.154;4.498;2023-04-21T07:25:53;41.03;;;27.55;;
72413;SDS011;60995;52.154;4.498;2023-04-21T07:28:10;43.13;;;28.95;;
72413;SDS011;60995;52.154;4.498;2023-04-21T07:30:29;39.65;;;27.42;;
72413;SDS011;60995;52.154;4.498;2023-04-21T07:32:46;44.28;;;28.33;;
72413;SDS011;60995;52.154;4.498;2023-04-21T07:35:02;45.75;;;29.08;;
72413;SDS011;60995;52.154;4.498;2023-04-21T07:37:20;45.63;;;30.55;;
72413;SDS011;60995;52.154;4.498;2023-04-21T07:39:39;48.53;;;30.73;;
72413;SDS011;60995;52.154;4.498;2023-04-21T07:41:56;43.35;;;29.75;;
72413;SDS011;60995;52.154;4.498;2023-04-21T07:44:12;45.65;;;30.70;;
72413;SDS011;60995;52.154;4.498;2023-04-21T07:46:29;49.83;;;33.33;;
72413;SDS011;60995;52.154;4.498;2023-04-21T07:48:46;47.42;;;32.60;;
72413;SDS011;60995;52.154;4.498;2023-04-21T07:51:03;48.05;;;32.25;;
72413;SDS011;60995;52.154;4.498;2023-04-21T07:53:28;48.67;;;33.50;;
72413;SDS011;60995;52.154;4.498;2023-04-21T07:55:45;51.60;;;34.50;;
72413;SDS011;60995;52.154;4.498;2023-04-21T07:58:03;48.08;;;33.58;;
72413;SDS011;60995;52.154;4.498;2023-04-21T08:00:20;47.33;;;32.97;;
72413;SDS011;60995;52.154;4.498;2023-04-21T08:02:36;48.30;;;33.03;;
72413;SDS011;60995;52.154;4.498;2023-04-21T08:04:53;48.53;;;32.63;;
72413;SDS011;60995;52.154;4.498;2023-04-21T08:07:09;45.25;;;31.48;;
72413;SDS011;60995;52.154;4.498;2023-04-21T08:09:28;46.58;;;33.50;;
72413;SDS011;60995;52.154;4.498;2023-04-21T08:11:44;44.20;;;30.40;;
72413;SDS011;60995;52.154;4.498;2023-04-21T08:14:02;44.92;;;31.60;;
72413;SDS011;60995;52.154;4.498;2023-04-21T08:16:18;48.28;;;32.08;;
72413;SDS011;60995;52.154;4.498;2023-04-21T08:18:35;48.38;;;32.08;;
72413;SDS011;60995;52.154;4.498;2023-04-21T08:20:52;44.58;;;31.50;;
72413;SDS011;60995;52.154;4.498;2023-04-21T08:23:10;48.25;;;32.90;;
72413;SDS011;60995;52.154;4.498;2023-04-21T08:25:27;61.47;;;30.25;;
72413;SDS011;60995;52.154;4.498;2023-04-21T08:27:43;42.08;;;30.23;;
72413;SDS011;60995;52.154;4.498;2023-04-21T08:29:59;39.30;;;28.88;;
72413;SDS011;60995;52.154;4.498;2023-04-21T08:32:16;38.78;;;29.58;;
72413;SDS011;60995;52.154;4.498;2023-04-21T08:34:38;45.85;;;29.65;;
72413;SDS011;60995;52.154;4.498;2023-04-21T08:36:54;38.83;;;29.40;;
72413;SDS011;60995;52.154;4.498;2023-04-21T08:39:11;40.40;;;29.02;;
72413;SDS011;60995;52.154;4.498;2023-04-21T08:41:28;42.90;;;29.35;;
72413;SDS011;60995;52.154;4.498;2023-04-21T08:43:44;39.95;;;29.92;;
72413;SDS011;60995;52.154;4.498;2023-04-21T08:46:01;37.03;;;26.60;;
72413;SDS011;60995;52.154;4.498;2023-04-21T08:48:23;33.72;;;24.17;;
72413;SDS011;60995;52.154;4.498;2023-04-21T08:50:41;32.88;;;24.25;;
72413;SDS011;60995;52.154;4.498;2023-04-21T08:53:01;29.95;;;23.27;;
72413;SDS011;60995;52.154;4.498;2023-04-21T08:55:17;32.53;;;23.45;;
72413;SDS011;60995;52.154;4.498;2023-04-21T08:57:35;32.45;;;23.17;;
72413;SDS011;60995;52.154;4.498;2023-04-21T08:59:52;33.17;;;24.10;;
72413;SDS011;60995;52.154;4.498;2023-04-21T09:02:09;31.45;;;24.38;;
72413;SDS011;60995;52.154;4.498;2023-04-21T09:04:29;30.20;;;22.85;;
72413;SDS011;60995;52.154;4.498;2023-04-21T09:06:46;32.08;;;23.10;;
72413;SDS011;60995;52.154;4.498;2023-04-21T09:09:02;30.95;;;24.35;;
72413;SDS011;60995;52.154;4.498;2023-04-21T09:11:20;31.35;;;23.02;;
72413;SDS011;60995;52.154;4.498;2023-04-21T09:13:37;31.67;;;24.13;;
72413;SDS011;60995;52.154;4.498;2023-04-21T09:15:53;29.25;;;22.88;;
72413;SDS011;60995;52.154;4.498;2023-04-21T09:18:17;28.35;;;21.92;;
72413;SDS011;60995;52.154;4.498;2023-04-21T09:20:40;28.55;;;22.95;;
72413;SDS011;60995;52.154;4.498;2023-04-21T09:22:59;28.50;;;22.45;;
72413;SDS011;60995;52.154;4.498;2023-04-21T09:25:20;27.30;;;20.15;;
72413;SDS011;60995;52.154;4.498;2023-04-21T09:27:38;30.15;;;23.95;;
72413;SDS011;60995;52.154;4.498;2023-04-21T09:30:03;27.05;;;18.63;;
72413;SDS011;60995;52.154;4.498;2023-04-21T09:32:21;27.65;;;22.55;;
72413;SDS011;60995;52.154;4.498;2023-04-21T09:34:40;26.55;;;20.92;;
72413;SDS011;60995;52.154;4.498;2023-04-21T09:36:59;31.48;;;22.83;;
72413;SDS011;60995;52.154;4.498;2023-04-21T09:39:17;26.88;;;21.63;;
72413;SDS011;60995;52.154;4.498;2023-04-21T09:41:38;26.83;;;20.40;;
72413;SDS011;60995;52.154;4.498;2023-04-21T09:43:55;26.73;;;20.45;;
72413;SDS011;60995;52.154;4.498;2023-04-21T09:46:19;25.48;;;18.50;;
72413;SDS011;60995;52.154;4.498;2023-04-21T09:48:39;26.33;;;19.48;;
72413;SDS011;60995;52.154;4.498;2023-04-21T09:51:00;24.50;;;18.20;;
72413;SDS011;60995;52.154;4.498;2023-04-21T09:53:17;25.98;;;18.45;;
72413;SDS011;60995;52.154;4.498;2023-04-21T09:55:39;23.02;;;18.50;;
72413;SDS011;60995;52.154;4.498;2023-04-21T09:57:58;22.48;;;17.50;;
72413;SDS011;60995;52.154;4.498;2023-04-21T10:00:17;22.73;;;18.67;;
72413;SDS011;60995;52.154;4.498;2023-04-21T10:02:41;23.27;;;19.40;;
72413;SDS011;60995;52.154;4.498;2023-04-21T10:05:06;23.98;;;19.30;;
72413;SDS011;60995;52.154;4.498;2023-04-21T10:07:25;24.45;;;18.08;;
72413;SDS011;60995;52.154;4.498;2023-04-21T10:09:49;21.77;;;16.05;;
72413;SDS011;60995;52.154;4.498;2023-04-21T10:12:09;25.52;;;19.40;;
72413;SDS011;60995;52.154;4.498;2023-04-21T10:14:28;27.77;;;19.13;;
72413;SDS011;60995;52.154;4.498;2023-04-21T10:16:54;27.27;;;20.77;;
72413;SDS011;60995;52.154;4.498;2023-04-21T10:19:22;29.40;;;21.98;;
72413;SDS011;60995;52.154;4.498;2023-04-21T10:21:40;29.05;;;21.50;;
72413;SDS011;60995;52.154;4.498;2023-04-21T10:23:57;26.42;;;20.75;;
72413;SDS011;60995;52.154;4.498;2023-04-21T10:28:45;27.45;;;20.60;;
72413;SDS011;60995;52.154;4.498;2023-04-21T10:33:38;28.77;;;21.70;;
72413;SDS011;60995;52.154;4.498;2023-04-21T10:35:58;26.10;;;20.77;;
72413;SDS011;60995;52.154;4.498;2023-04-21T10:38:39;27.90;;;21.17;;
72413;SDS011;60995;52.154;4.498;2023-04-21T10:41:12;27.30;;;21.50;;
72413;SDS011;60995;52.154;4.498;2023-04-21T10:43:43;25.98;;;21.23;;
72413;SDS011;60995;52.154;4.498;2023-04-21T10:46:29;26.70;;;20.65;;
72413;SDS011;60995;52.154;4.498;2023-04-21T10:48:54;26.73;;;22.00;;
72413;SDS011;60995;52.154;4.498;2023-04-21T10:51:21;27.42;;;20.67;;
72413;SDS011;60995;52.154;4.498;2023-04-21T10:53:43;26.02;;;19.50;;
72413;SDS011;60995;52.154;4.498;2023-04-21T10:56:00;28.63;;;22.42;;
72413;SDS011;60995;52.154;4.498;2023-04-21T10:58:18;26.80;;;19.48;;
72413;SDS011;60995;52.154;4.498;2023-04-21T11:00:39;24.38;;;18.30;;
72413;SDS011;60995;52.154;4.498;2023-04-21T11:02:59;24.95;;;20.00;;
72413;SDS011;60995;52.154;4.498;2023-04-21T11:05:18;24.03;;;17.47;;
72413;SDS011;60995;52.154;4.498;2023-04-21T11:07:35;20.95;;;16.13;;
72413;SDS011;60995;52.154;4.498;2023-04-21T11:09:59;21.38;;;16.65;;
72413;SDS011;60995;52.154;4.498;2023-04-21T11:12:20;20.73;;;15.50;;
72413;SDS011;60995;52.154;4.498;2023-04-21T11:14:38;22.23;;;16.00;;
72413;SDS011;60995;52.154;4.498;2023-04-21T11:16:56;23.33;;;16.05;;
72413;SDS011;60995;52.154;4.498;2023-04-21T11:19:13;20.88;;;16.88;;
72413;SDS011;60995;52.154;4.498;2023-04-21T11:21:30;21.10;;;16.73;;
72413;SDS011;60995;52.154;4.498;2023-04-21T11:23:48;23.02;;;17.67;;
72413;SDS011;60995;52.154;4.498;2023-04-21T11:26:07;22.20;;;16.83;;
72413;SDS011;60995;52.154;4.498;2023-04-21T11:28:24;19.95;;;16.42;;
72413;SDS011;60995;52.154;4.498;2023-04-21T11:30:40;21.83;;;16.27;;
72413;SDS011;60995;52.154;4.498;2023-04-21T11:32:57;23.13;;;16.13;;
72413;SDS011;60995;52.154;4.498;2023-04-21T11:35:13;22.80;;;17.85;;
72413;SDS011;60995;52.154;4.498;2023-04-21T11:37:32;23.83;;;17.92;;
72413;SDS011;60995;52.154;4.498;2023-04-21T11:39:49;25.10;;;18.08;;
72413;SDS011;60995;52.154;4.498;2023-04-21T11:42:11;26.40;;;18.10;;
72413;SDS011;60995;52.154;4.498;2023-04-21T11:44:38;24.70;;;16.30;;
72413;SDS011;60995;52.154;4.498;2023-04-21T11:46:57;23.90;;;17.95;;
72413;SDS011;60995;52.154;4.498;2023-04-21T11:49:14;21.67;;;16.02;;
72413;SDS011;60995;52.154;4.498;2023-04-21T11:51:34;21.88;;;17.15;;
72413;SDS011;60995;52.154;4.498;2023-04-21T11:53:55;25.70;;;17.85;;
72413;SDS011;60995;52.154;4.498;2023-04-21T11:56:19;22.48;;;17.17;;
72413;SDS011;60995;52.154;4.498;2023-04-21T11:58:39;23.95;;;17.05;;
72413;SDS011;60995;52.154;4.498;2023-04-21T12:00:55;23.85;;;17.45;;
72413;SDS011;60995;52.154;4.498;2023-04-21T12:03:12;21.25;;;15.75;;
72413;SDS011;60995;52.154;4.498;2023-04-21T12:05:35;22.17;;;14.85;;
72413;SDS011;60995;52.154;4.498;2023-04-21T12:07:54;20.30;;;15.05;;
72413;SDS011;60995;52.154;4.498;2023-04-21T12:10:12;23.38;;;16.13;;
72413;SDS011;60995;52.154;4.498;2023-04-21T12:12:31;20.58;;;15.45;;
72413;SDS011;60995;52.154;4.498;2023-04-21T12:14:56;22.02;;;14.88;;
72413;SDS011;60995;52.154;4.498;2023-04-21T12:17:12;22.55;;;15.80;;
72413;SDS011;60995;52.154;4.498;2023-04-21T12:19:36;23.05;;;16.92;;
72413;SDS011;60995;52.154;4.498;2023-04-21T12:21:56;26.60;;;18.80;;
72413;SDS011;60995;52.154;4.498;2023-04-21T12:24:13;25.80;;;19.13;;
72413;SDS011;60995;52.154;4.498;2023-04-21T12:26:29;26.95;;;19.20;;
72413;SDS011;60995;52.154;4.498;2023-04-21T12:28:46;28.98;;;20.67;;
72413;SDS011;60995;52.154;4.498;2023-04-21T12:31:02;26.77;;;19.75;;
72413;SDS011;60995;52.154;4.498;2023-04-21T12:33:20;27.55;;;19.38;;
72413;SDS011;60995;52.154;4.498;2023-04-21T12:35:36;25.92;;;17.55;;
72413;SDS011;60995;52.154;4.498;2023-04-21T12:37:53;24.17;;;17.67;;
72413;SDS011;60995;52.154;4.498;2023-04-21T12:40:12;23.85;;;18.13;;
72413;SDS011;60995;52.154;4.498;2023-04-21T12:42:29;25.83;;;18.75;;
72413;SDS011;60995;52.154;4.498;2023-04-21T12:44:45;23.95;;;18.73;;
72413;SDS011;60995;52.154;4.498;2023-04-21T12:47:02;25.58;;;19.45;;
72413;SDS011;60995;52.154;4.498;2023-04-21T12:49:18;26.33;;;17.25;;
72413;SDS011;60995;52.154;4.498;2023-04-21T12:51:37;25.67;;;18.60;;
72413;SDS011;60995;52.154;4.498;2023-04-21T12:53:54;23.27;;;17.55;;
72413;SDS011;60995;52.154;4.498;2023-04-21T12:56:10;25.52;;;18.48;;
72413;SDS011;60995;52.154;4.498;2023-04-21T12:58:27;23.02;;;17.58;;
72413;SDS011;60995;52.154;4.498;2023-04-21T13:00:43;25.85;;;18.17;;
72413;SDS011;60995;52.154;4.498;2023-04-21T13:03:00;26.08;;;18.20;;
72413;SDS011;60995;52.154;4.498;2023-04-21T13:05:17;25.70;;;17.77;;
72413;SDS011;60995;52.154;4.498;2023-04-21T13:07:34;26.27;;;19.02;;
72413;SDS011;60995;52.154;4.498;2023-04-21T13:09:51;27.35;;;19.70;;
72413;SDS011;60995;52.154;4.498;2023-04-21T13:12:08;26.67;;;19.35;;
72413;SDS011;60995;52.154;4.498;2023-04-21T13:14:27;29.88;;;19.83;;
72413;SDS011;60995;52.154;4.498;2023-04-21T13:16:44;27.00;;;19.23;;
72413;SDS011;60995;52.154;4.498;2023-04-21T13:19:01;28.73;;;19.02;;
72413;SDS011;60995;52.154;4.498;2023-04-21T13:21:19;29.40;;;20.35;;
72413;SDS011;60995;52.154;4.498;2023-04-21T13:23:36;25.95;;;17.60;;
72413;SDS011;60995;52.154;4.498;2023-04-21T13:25:52;27.73;;;19.27;;
72413;SDS011;60995;52.154;4.498;2023-04-21T13:28:09;29.20;;;19.48;;
72413;SDS011;60995;52.154;4.498;2023-04-21T13:30:26;27.25;;;19.48;;
72413;SDS011;60995;52.154;4.498;2023-04-21T13:32:42;26.10;;;18.65;;